createdAt,value
2023-05-12T00:01:16.399Z,8.10
2023-05-12T00:03:43.395Z,8.10
2023-05-12T00:06:10.405Z,8.20
2023-05-12T00:08:37.150Z,8.20
2023-05-12T00:11:04.081Z,8.20
2023-05-12T00:13:30.893Z,8.20
2023-05-12T00:15:58.942Z,8.20
2023-05-12T00:18:26.412Z,8.20
2023-05-12T00:20:54.705Z,8.20
2023-05-12T00:23:22.188Z,8.20
2023-05-12T00:25:49.091Z,8.10
2023-05-12T00:28:16.509Z,8.10
2023-05-12T00:30:43.130Z,7.90
2023-05-12T00:33:09.939Z,8.00
2023-05-12T00:35:36.623Z,7.90
2023-05-12T00:38:03.602Z,7.90
2023-05-12T00:40:30.453Z,7.90
2023-05-12T00:42:57.349Z,7.90
2023-05-12T00:45:24.346Z,7.80
2023-05-12T00:47:52.642Z,7.70
2023-05-12T00:50:19.753Z,7.70
2023-05-12T00:52:48.007Z,7.60
2023-05-12T00:55:14.882Z,7.60
2023-05-12T00:57:42.959Z,7.60
2023-05-12T01:00:11.686Z,7.60
2023-05-12T01:02:39.815Z,7.60
2023-05-12T01:05:07.040Z,7.60
2023-05-12T01:07:34.329Z,7.60
2023-05-12T01:10:01.442Z,7.50
2023-05-12T01:12:32.288Z,7.40
2023-05-12T01:14:59.708Z,7.40
2023-05-12T01:17:33.355Z,7.50
2023-05-12T01:20:04.503Z,7.50
2023-05-12T01:22:33.461Z,7.50
2023-05-12T01:25:02.657Z,7.50
2023-05-12T01:27:31.524Z,7.50
2023-05-12T01:30:01.791Z,7.50
2023-05-12T01:32:32.298Z,7.50
2023-05-12T01:34:59.128Z,7.40
2023-05-12T01:37:26.968Z,7.40
2023-05-12T01:39:54.730Z,7.40
2023-05-12T01:42:21.631Z,7.40
2023-05-12T01:44:49.200Z,7.40
2023-05-12T01:47:16.086Z,7.40
2023-05-12T01:49:48.858Z,7.40
2023-05-12T01:52:16.549Z,7.50
2023-05-12T01:54:43.199Z,7.50
2023-05-12T01:57:11.402Z,7.50
2023-05-12T01:59:39.095Z,7.50
2023-05-12T02:02:06.813Z,7.50
2023-05-12T02:04:34.559Z,7.60
2023-05-12T02:07:01.941Z,7.40
2023-05-12T02:09:29.157Z,7.40
2023-05-12T02:12:01.137Z,7.50
2023-05-12T02:14:28.145Z,7.50
2023-05-12T02:16:56.317Z,7.40
2023-05-12T02:19:24.638Z,7.40
2023-05-12T02:21:51.343Z,7.40
2023-05-12T02:24:17.998Z,7.40
2023-05-12T02:26:45.490Z,7.50
2023-05-12T02:29:13.401Z,7.40
2023-05-12T02:31:40.127Z,7.40
2023-05-12T02:34:16.304Z,7.40
2023-05-12T02:36:43.193Z,7.40
2023-05-12T02:39:11.475Z,7.40
2023-05-12T02:41:38.254Z,7.40
2023-05-12T02:44:05.119Z,7.40
2023-05-12T02:46:31.878Z,7.30
2023-05-12T02:48:58.598Z,7.30
2023-05-12T02:51:25.295Z,7.30
2023-05-12T02:53:52.165Z,7.30
2023-05-12T02:56:19.009Z,7.40
2023-05-12T02:58:45.900Z,7.40
2023-05-12T03:01:12.750Z,7.40
2023-05-12T03:03:41.311Z,7.50
2023-05-12T03:06:08.525Z,7.50
2023-05-12T03:08:36.150Z,7.50
2023-05-12T03:11:02.920Z,7.40
2023-05-12T03:13:29.653Z,7.50
2023-05-12T03:16:01.059Z,7.50
2023-05-12T03:18:28.974Z,7.40
2023-05-12T03:20:55.722Z,7.40
2023-05-12T03:23:24.506Z,7.40
2023-05-12T03:25:51.550Z,7.40
2023-05-12T03:28:18.318Z,7.40
2023-05-12T03:30:45.181Z,7.50
2023-05-12T03:33:11.849Z,7.40
2023-05-12T03:35:38.530Z,7.40
2023-05-12T03:38:05.225Z,7.50
2023-05-12T03:40:31.984Z,7.40
2023-05-12T03:42:58.634Z,7.40
2023-05-12T03:45:25.293Z,7.40
2023-05-12T03:47:52.124Z,7.40
2023-05-12T03:50:19.231Z,7.40
2023-05-12T03:52:46.156Z,7.40
2023-05-12T03:55:13.511Z,7.30
2023-05-12T03:57:41.891Z,7.30
2023-05-12T04:00:09.212Z,7.20
2023-05-12T04:02:46.463Z,7.20
2023-05-12T04:05:14.408Z,7.20
2023-05-12T04:07:41.932Z,7.30
2023-05-12T04:10:08.961Z,7.30
2023-05-12T04:12:35.675Z,7.40
2023-05-12T04:15:02.761Z,7.40
2023-05-12T04:17:29.459Z,7.30
2023-05-12T04:19:56.151Z,7.20
2023-05-12T04:22:25.574Z,7.20
2023-05-12T04:24:52.833Z,7.30
2023-05-12T04:27:19.620Z,7.40
2023-05-12T04:29:46.340Z,7.30
2023-05-12T04:32:13.279Z,7.40
2023-05-12T04:34:40.177Z,7.40
2023-05-12T04:37:07.282Z,7.40
2023-05-12T04:39:34.467Z,7.40
2023-05-12T04:42:04.509Z,7.40
2023-05-12T04:44:33.616Z,7.30
2023-05-12T04:47:00.638Z,7.40
2023-05-12T04:49:27.315Z,7.50
2023-05-12T04:51:53.983Z,7.50
2023-05-12T04:54:20.705Z,7.60
2023-05-12T04:56:47.563Z,7.60
2023-05-12T04:59:15.781Z,7.60
2023-05-12T05:01:43.374Z,7.60
2023-05-12T05:04:10.229Z,7.60
2023-05-12T05:06:37.145Z,7.60
2023-05-12T05:09:04.157Z,7.60
2023-05-12T05:11:31.923Z,7.60
2023-05-12T05:13:58.957Z,7.70
2023-05-12T05:16:25.994Z,7.80
2023-05-12T05:18:53.016Z,7.80
2023-05-12T05:21:19.910Z,8.00
2023-05-12T05:23:46.686Z,8.10
2023-05-12T05:26:14.099Z,8.20
2023-05-12T05:28:41.409Z,8.20
2023-05-12T05:31:08.398Z,8.30
2023-05-12T05:33:39.489Z,8.40
2023-05-12T05:36:06.572Z,8.40
2023-05-12T05:38:33.420Z,8.40
2023-05-12T05:41:00.150Z,8.60
2023-05-12T05:43:27.741Z,8.70
2023-05-12T05:45:57.007Z,8.80
2023-05-12T05:48:27.462Z,8.90
2023-05-12T05:50:55.045Z,9.10
2023-05-12T05:53:23.498Z,9.20
2023-05-12T05:55:51.249Z,9.40
2023-05-12T05:58:18.256Z,9.50
2023-05-12T06:00:46.135Z,9.50
2023-05-12T06:03:13.098Z,9.60
2023-05-12T06:05:42.113Z,9.70
2023-05-12T06:08:13.123Z,9.80
2023-05-12T06:10:40.976Z,10.00
2023-05-12T06:13:07.631Z,10.10
2023-05-12T06:15:34.488Z,10.10
2023-05-12T06:18:01.217Z,10.10
2023-05-12T06:20:28.034Z,10.10
2023-05-12T06:22:54.814Z,10.20
2023-05-12T06:25:21.701Z,10.20
2023-05-12T06:27:51.900Z,10.40
2023-05-12T06:30:18.844Z,10.50
2023-05-12T06:32:45.877Z,10.50
2023-05-12T06:35:12.614Z,10.40
2023-05-12T06:37:39.313Z,10.40
2023-05-12T06:40:07.406Z,10.40
2023-05-12T06:42:34.067Z,10.40
2023-05-12T06:45:08.574Z,10.40
2023-05-12T06:47:35.307Z,10.50
2023-05-12T06:50:02.120Z,10.70
2023-05-12T06:52:28.774Z,10.70
2023-05-12T06:54:55.511Z,10.90
2023-05-12T06:57:22.182Z,11.10
2023-05-12T06:59:48.883Z,11.20
2023-05-12T07:02:16.882Z,11.20
2023-05-12T07:04:43.515Z,11.10
2023-05-12T07:07:10.163Z,11.20
2023-05-12T07:09:36.862Z,11.30
2023-05-12T07:12:04.714Z,11.40
2023-05-12T07:14:32.070Z,11.50
2023-05-12T07:16:58.657Z,11.60
2023-05-12T07:19:25.400Z,11.70
2023-05-12T07:21:52.066Z,11.80
2023-05-12T07:24:18.734Z,11.70
2023-05-12T07:26:45.390Z,11.90
2023-05-12T07:29:13.793Z,12.10
2023-05-12T07:31:40.846Z,12.30
2023-05-12T07:34:08.262Z,12.40
2023-05-12T07:36:34.948Z,12.30
2023-05-12T07:39:01.611Z,12.50
2023-05-12T07:41:28.244Z,12.80
2023-05-12T07:43:55.031Z,12.90
2023-05-12T07:46:21.754Z,13.00
2023-05-12T07:48:48.468Z,12.80
2023-05-12T07:51:15.228Z,13.00
2023-05-12T07:53:41.850Z,13.00
2023-05-12T07:56:08.580Z,13.20
2023-05-12T07:58:35.265Z,13.00
2023-05-12T08:01:05.882Z,12.70
2023-05-12T08:03:33.638Z,12.50
2023-05-12T08:06:00.404Z,12.70
2023-05-12T08:08:27.060Z,12.90
2023-05-12T08:10:53.706Z,13.20
2023-05-12T08:13:20.405Z,13.40
2023-05-12T08:15:47.961Z,13.50
2023-05-12T08:18:14.663Z,13.70
2023-05-12T08:20:41.500Z,13.80
2023-05-12T08:23:08.201Z,13.90
2023-05-12T08:25:37.012Z,13.70
2023-05-12T08:28:03.731Z,13.60
2023-05-12T08:30:30.516Z,13.70
2023-05-12T08:32:57.564Z,13.70
2023-05-12T08:35:26.379Z,13.80
2023-05-12T08:37:53.138Z,13.80
2023-05-12T08:40:24.399Z,13.90
2023-05-12T08:43:21.756Z,13.70
2023-05-12T08:45:49.699Z,13.60
2023-05-12T08:48:19.442Z,13.60
2023-05-12T08:50:49.901Z,13.60
2023-05-12T08:53:19.144Z,13.50
2023-05-12T08:56:01.156Z,13.60
2023-05-12T08:58:41.685Z,13.80
2023-05-12T09:01:10.915Z,13.80
2023-05-12T09:03:37.690Z,13.90
2023-05-12T09:06:06.403Z,13.90
2023-05-12T09:08:34.748Z,14.00
2023-05-12T09:11:02.129Z,14.50
2023-05-12T09:13:49.786Z,14.20
2023-05-12T09:16:25.600Z,14.20
2023-05-12T09:18:54.198Z,14.30
2023-05-12T09:21:21.336Z,14.40
2023-05-12T09:24:06.297Z,14.50
2023-05-12T09:26:54.120Z,14.70
2023-05-12T09:29:31.379Z,14.90
2023-05-12T09:32:01.609Z,14.80
2023-05-12T09:34:38.575Z,14.90
2023-05-12T09:37:07.001Z,15.20
2023-05-12T09:39:34.314Z,15.30
2023-05-12T09:42:01.359Z,15.30
2023-05-12T09:44:31.031Z,15.40
2023-05-12T09:47:07.087Z,15.40
2023-05-12T09:49:33.947Z,15.40
2023-05-12T09:52:00.626Z,15.30
2023-05-12T09:54:28.729Z,15.50
2023-05-12T09:57:00.217Z,15.70
2023-05-12T09:59:34.909Z,15.70
2023-05-12T10:02:04.892Z,15.60
2023-05-12T10:04:45.012Z,15.70
2023-05-12T10:07:14.168Z,15.70
2023-05-12T10:09:42.587Z,15.80
2023-05-12T10:12:10.005Z,15.90
2023-05-12T10:14:37.355Z,15.80
2023-05-12T10:17:06.877Z,15.90
2023-05-12T10:19:35.550Z,16.00
2023-05-12T10:22:02.864Z,16.10
2023-05-12T10:24:29.511Z,15.90
2023-05-12T10:26:57.451Z,15.90
2023-05-12T10:29:32.784Z,15.80
2023-05-12T10:32:03.100Z,15.90
2023-05-12T10:34:34.852Z,15.90
2023-05-12T10:37:04.292Z,15.90
2023-05-12T10:39:32.975Z,16.00
2023-05-12T10:42:09.955Z,15.90
2023-05-12T10:44:47.767Z,15.90
2023-05-12T10:47:17.413Z,16.00
2023-05-12T10:49:44.475Z,16.00
2023-05-12T10:52:13.205Z,15.90
2023-05-12T10:54:45.088Z,15.80
2023-05-12T10:57:18.880Z,15.90
2023-05-12T10:59:59.846Z,16.10
2023-05-12T11:02:34.156Z,16.10
2023-05-12T11:05:05.201Z,16.30
2023-05-12T11:07:35.076Z,16.10
2023-05-12T11:10:05.356Z,16.20
2023-05-12T11:12:35.099Z,16.30
2023-05-12T11:15:03.220Z,16.40
2023-05-12T11:17:29.930Z,16.30
2023-05-12T11:19:56.950Z,16.30
2023-05-12T11:22:24.092Z,16.30
2023-05-12T11:24:52.496Z,16.30
2023-05-12T11:27:20.984Z,16.20
2023-05-12T11:30:02.826Z,16.20
2023-05-12T11:32:30.116Z,16.10
2023-05-12T11:35:15.104Z,16.00
2023-05-12T11:37:43.409Z,15.90
2023-05-12T11:40:13.266Z,15.80
2023-05-12T11:42:41.308Z,15.80
2023-05-12T11:45:18.759Z,15.90
2023-05-12T11:47:45.786Z,15.90
2023-05-12T11:50:12.524Z,16.00
2023-05-12T11:52:39.515Z,16.00
2023-05-12T11:55:06.618Z,16.00
2023-05-12T11:57:36.190Z,15.90
2023-05-12T12:00:07.939Z,15.90
2023-05-12T12:02:43.230Z,15.80
2023-05-12T12:05:21.686Z,15.60
2023-05-12T12:07:48.560Z,15.40
2023-05-12T12:10:17.198Z,15.20
2023-05-12T12:12:44.486Z,15.10
2023-05-12T12:15:11.325Z,15.10
2023-05-12T12:17:39.666Z,15.00
2023-05-12T12:20:08.144Z,15.00
2023-05-12T12:22:35.241Z,15.00
2023-05-12T12:25:03.214Z,15.00
2023-05-12T12:27:30.036Z,15.10
2023-05-12T12:29:56.792Z,15.00
2023-05-12T12:32:23.661Z,15.10
2023-05-12T12:34:50.407Z,15.10
2023-05-12T12:37:17.212Z,15.20
2023-05-12T12:39:44.084Z,15.30
2023-05-12T12:42:10.741Z,15.40
2023-05-12T12:44:37.394Z,15.40
2023-05-12T12:47:04.921Z,15.50
2023-05-12T12:49:31.709Z,15.60
2023-05-12T12:51:58.416Z,15.60
2023-05-12T12:54:27.339Z,15.70
2023-05-12T12:56:55.670Z,15.70
2023-05-12T12:59:22.567Z,15.70
2023-05-12T13:01:49.521Z,15.80
2023-05-12T13:04:19.559Z,15.80
2023-05-12T13:06:46.593Z,15.80
2023-05-12T13:09:13.867Z,15.70
2023-05-12T13:11:40.564Z,15.70
2023-05-12T13:14:08.183Z,15.70
2023-05-12T13:16:34.954Z,15.70
2023-05-12T13:19:01.703Z,15.70
2023-05-12T13:21:28.363Z,15.70
2023-05-12T13:23:55.080Z,15.60
2023-05-12T13:26:22.361Z,15.70
2023-05-12T13:28:49.111Z,15.70
2023-05-12T13:31:15.896Z,15.80
2023-05-12T13:33:42.567Z,15.80
2023-05-12T13:36:09.267Z,15.70
2023-05-12T13:38:35.970Z,15.80
2023-05-12T13:41:02.688Z,15.90
2023-05-12T13:43:29.318Z,15.90
2023-05-12T13:45:55.991Z,15.90
2023-05-12T13:48:22.628Z,16.00
2023-05-12T13:50:50.074Z,16.00
2023-05-12T13:53:16.736Z,15.90
2023-05-12T13:55:44.548Z,15.90
2023-05-12T13:58:11.211Z,15.80
2023-05-12T14:00:37.914Z,15.70
2023-05-12T14:03:04.746Z,15.70
2023-05-12T14:05:31.671Z,15.60
2023-05-12T14:07:58.432Z,15.60
2023-05-12T14:10:25.100Z,15.50
2023-05-12T14:12:51.738Z,15.40
2023-05-12T14:17:48.018Z,15.20
2023-05-12T14:20:14.714Z,15.10
2023-05-12T14:22:41.940Z,15.00
2023-05-12T14:25:08.905Z,14.90
2023-05-12T14:27:35.528Z,14.80
2023-05-12T14:30:02.485Z,14.70
2023-05-12T14:32:29.174Z,14.70
2023-05-12T14:34:55.827Z,14.70
2023-05-12T14:37:22.480Z,14.60
2023-05-12T14:39:49.121Z,14.60
2023-05-12T14:42:15.993Z,14.60
2023-05-12T14:44:42.777Z,14.60
2023-05-12T14:47:09.455Z,14.60
2023-05-12T14:49:36.360Z,14.40
2023-05-12T14:52:03.687Z,14.40
2023-05-12T14:54:30.419Z,14.30
2023-05-12T14:56:57.080Z,14.20
2023-05-12T14:59:23.737Z,14.20
2023-05-12T15:01:50.497Z,14.20
2023-05-12T15:04:17.236Z,14.20
2023-05-12T15:06:43.897Z,14.20
2023-05-12T15:09:10.799Z,14.20
2023-05-12T15:11:37.702Z,14.10
2023-05-12T15:14:04.889Z,14.10
2023-05-12T15:16:33.040Z,14.10
2023-05-12T15:18:59.892Z,14.00
2023-05-12T15:21:26.649Z,14.00
2023-05-12T15:23:53.286Z,14.30
2023-05-12T15:26:32.691Z,13.90
2023-05-12T15:29:00.185Z,13.80
2023-05-12T15:31:29.232Z,13.80
2023-05-12T15:33:57.019Z,13.80
2023-05-12T15:36:24.639Z,13.80
2023-05-12T15:38:51.448Z,13.70
2023-05-12T15:41:18.208Z,13.70
2023-05-12T15:43:44.869Z,13.70
2023-05-12T15:46:11.824Z,13.70
2023-05-12T15:48:39.461Z,13.60
2023-05-12T15:51:06.729Z,13.70
2023-05-12T15:53:33.773Z,13.70
2023-05-12T15:56:04.721Z,13.70
2023-05-12T15:58:31.926Z,13.60
2023-05-12T16:00:59.028Z,13.70
2023-05-12T16:03:26.322Z,13.70
2023-05-12T16:05:53.242Z,13.70
2023-05-12T16:08:20.405Z,13.70
2023-05-12T16:10:47.175Z,13.70
2023-05-12T16:13:14.478Z,13.70
2023-05-12T16:15:41.067Z,13.60
2023-05-12T16:18:10.882Z,13.60
2023-05-12T16:20:38.745Z,13.60
2023-05-12T16:23:05.493Z,13.60
2023-05-12T16:25:32.143Z,13.50
2023-05-12T16:27:58.933Z,13.50
2023-05-12T16:30:26.318Z,13.40
2023-05-12T16:32:53.257Z,13.30
2023-05-12T16:35:20.682Z,13.30
2023-05-12T16:37:47.711Z,13.30
2023-05-12T16:40:15.139Z,13.30
2023-05-12T16:42:42.616Z,13.30
2023-05-12T16:45:10.858Z,13.30
2023-05-12T16:47:37.855Z,13.20
2023-05-12T16:50:05.354Z,13.30
2023-05-12T16:52:32.027Z,13.30
2023-05-12T16:54:58.716Z,13.30
2023-05-12T16:57:25.809Z,13.60
2023-05-12T16:59:52.528Z,13.30
2023-05-12T17:02:19.255Z,13.30
2023-05-12T17:04:46.631Z,13.20
2023-05-12T17:07:13.368Z,13.20
2023-05-12T17:09:39.989Z,13.20
2023-05-12T17:12:07.869Z,13.20
2023-05-12T17:14:37.193Z,13.10
2023-05-12T17:17:03.803Z,13.10
2023-05-12T17:19:30.500Z,13.00
2023-05-12T17:21:57.150Z,12.90
2023-05-12T17:24:23.770Z,12.90
2023-05-12T17:26:50.447Z,12.80
2023-05-12T17:29:17.168Z,12.80
2023-05-12T17:31:43.862Z,12.70
2023-05-12T17:34:10.642Z,12.60
2023-05-12T17:36:37.355Z,12.60
2023-05-12T17:39:04.175Z,12.50
2023-05-12T17:41:30.761Z,12.50
2023-05-12T17:43:57.356Z,12.50
2023-05-12T17:46:24.070Z,12.50
2023-05-12T17:48:50.724Z,12.40
2023-05-12T17:51:17.305Z,12.40
2023-05-12T17:53:43.895Z,12.40
2023-05-12T17:56:11.385Z,12.40
2023-05-12T17:58:37.996Z,12.40
2023-05-12T18:01:04.657Z,12.30
2023-05-12T18:03:31.304Z,12.30
2023-05-12T18:05:57.899Z,12.30
2023-05-12T18:08:24.502Z,12.30
2023-05-12T18:10:51.150Z,12.30
2023-05-12T18:13:17.794Z,12.30
2023-05-12T18:15:44.448Z,12.30
2023-05-12T18:18:11.319Z,12.30
2023-05-12T18:20:38.109Z,12.20
2023-05-12T18:23:05.827Z,12.20
2023-05-12T18:25:32.412Z,12.10
2023-05-12T18:27:59.004Z,12.10
2023-05-12T18:30:25.774Z,12.00
2023-05-12T18:32:52.507Z,12.00
2023-05-12T18:35:19.666Z,12.00
2023-05-12T18:37:46.502Z,12.00
2023-05-12T18:40:13.138Z,11.90
2023-05-12T18:42:39.793Z,11.90
2023-05-12T18:45:06.795Z,11.90
2023-05-12T18:47:33.640Z,11.90
2023-05-12T18:50:00.273Z,11.90
2023-05-12T18:52:26.913Z,11.80
2023-05-12T18:54:53.524Z,11.80
2023-05-12T18:57:20.182Z,11.80
2023-05-12T18:59:46.784Z,11.80
2023-05-12T19:02:13.388Z,11.70
2023-05-12T19:04:40.081Z,11.70
2023-05-12T19:07:09.452Z,11.70
2023-05-12T19:09:36.908Z,11.60
2023-05-12T19:12:05.729Z,11.60
2023-05-12T19:14:32.517Z,11.60
2023-05-12T19:16:59.111Z,11.60
2023-05-12T19:19:25.801Z,11.50
2023-05-12T19:21:52.409Z,11.50
2023-05-12T19:24:19.359Z,11.50
2023-05-12T19:26:45.962Z,11.40
2023-05-12T19:29:12.550Z,11.40
2023-05-12T19:31:39.187Z,11.30
2023-05-12T19:34:06.216Z,11.40
2023-05-12T19:36:32.854Z,11.40
2023-05-12T19:39:00.354Z,11.30
2023-05-12T19:41:27.840Z,11.30
2023-05-12T19:43:54.910Z,11.30
2023-05-12T19:46:21.781Z,11.30
2023-05-12T19:48:48.528Z,11.30
2023-05-12T19:51:15.143Z,11.30
2023-05-12T19:53:43.103Z,11.30
2023-05-12T19:56:09.948Z,11.30
2023-05-12T19:58:36.539Z,11.40
2023-05-12T20:01:03.214Z,11.40
2023-05-12T20:03:29.875Z,11.30
2023-05-12T20:05:56.529Z,11.40
2023-05-12T20:08:23.098Z,11.40
2023-05-12T20:10:49.681Z,11.40
2023-05-12T20:13:16.393Z,11.40
2023-05-12T20:15:44.062Z,11.40
2023-05-12T20:18:12.654Z,11.40
2023-05-12T20:20:39.355Z,11.40
2023-05-12T20:23:05.952Z,11.40
2023-05-12T20:25:33.129Z,11.40
2023-05-12T20:27:59.808Z,11.40
2023-05-12T20:30:26.709Z,11.40
2023-05-12T20:32:53.473Z,11.40
2023-05-12T20:35:20.566Z,11.30
2023-05-12T20:37:47.483Z,11.40
2023-05-12T20:40:14.158Z,11.30
2023-05-12T20:42:40.837Z,11.30
2023-05-12T20:45:07.692Z,11.30
2023-05-12T20:47:35.030Z,11.20
2023-05-12T20:50:05.464Z,11.30
2023-05-12T20:52:33.476Z,11.20
2023-05-12T20:55:00.170Z,11.20
2023-05-12T20:57:27.010Z,11.10
2023-05-12T20:59:56.585Z,11.20
2023-05-12T21:02:24.326Z,11.20
2023-05-12T21:04:51.274Z,11.20
2023-05-12T21:07:17.886Z,11.10
2023-05-12T21:09:44.579Z,11.20
2023-05-12T21:12:11.176Z,11.10
2023-05-12T21:14:41.394Z,11.20
2023-05-12T21:17:08.717Z,11.90
2023-05-12T21:19:39.190Z,11.10
2023-05-12T21:22:06.727Z,11.10
2023-05-12T21:24:33.585Z,11.10
2023-05-12T21:27:04.109Z,11.10
2023-05-12T21:29:31.157Z,11.10
2023-05-12T21:31:57.831Z,11.10
2023-05-12T21:34:24.538Z,11.10
2023-05-12T21:36:51.199Z,11.00
2023-05-12T21:39:17.845Z,11.00
2023-05-12T21:41:44.477Z,11.00
2023-05-12T21:44:11.298Z,11.00
2023-05-12T21:46:38.346Z,10.90
2023-05-12T21:49:05.049Z,10.90
2023-05-12T21:51:33.107Z,10.80
2023-05-12T21:54:00.195Z,10.80
2023-05-12T21:56:26.806Z,10.80
2023-05-12T21:58:53.492Z,10.80
2023-05-12T22:01:20.254Z,10.80
2023-05-12T22:03:47.037Z,10.80
2023-05-12T22:06:13.723Z,10.70
2023-05-12T22:08:40.344Z,10.70
2023-05-12T22:11:06.930Z,10.70
2023-05-12T22:13:33.665Z,10.70
2023-05-12T22:16:00.342Z,10.70
2023-05-12T22:18:27.384Z,10.60
2023-05-12T22:20:54.132Z,10.70
2023-05-12T22:23:20.984Z,10.70
2023-05-12T22:25:47.565Z,10.60
2023-05-12T22:28:14.247Z,10.60
2023-05-12T22:30:41.839Z,10.60
2023-05-12T22:33:08.554Z,10.60
2023-05-12T22:35:35.308Z,10.50
2023-05-12T22:38:01.897Z,10.60
2023-05-12T22:40:29.144Z,10.60
2023-05-12T22:42:55.734Z,10.60
2023-05-12T22:45:22.309Z,10.60
2023-05-12T22:47:49.026Z,10.50
2023-05-12T22:50:16.004Z,10.60
2023-05-12T22:52:42.608Z,10.50
2023-05-12T22:55:09.504Z,10.50
2023-05-12T22:57:38.450Z,10.50
2023-05-12T23:00:05.886Z,10.50
2023-05-12T23:02:32.600Z,10.50
2023-05-12T23:04:59.206Z,10.40
2023-05-12T23:07:25.815Z,10.40
2023-05-12T23:09:52.398Z,10.40
2023-05-12T23:12:18.969Z,10.40
2023-05-12T23:14:45.556Z,11.30
2023-05-12T23:17:12.212Z,10.40
2023-05-12T23:19:40.045Z,10.40
2023-05-12T23:22:06.673Z,10.30
2023-05-12T23:24:34.062Z,10.30
2023-05-12T23:27:00.710Z,10.30
2023-05-12T23:29:27.492Z,10.30
2023-05-12T23:31:54.231Z,10.20
2023-05-12T23:34:21.003Z,10.30
2023-05-12T23:36:47.585Z,10.20
2023-05-12T23:39:14.178Z,10.20
2023-05-12T23:41:40.757Z,10.20
2023-05-12T23:44:07.353Z,10.20
2023-05-12T23:46:33.987Z,10.20
2023-05-12T23:49:00.588Z,10.20
2023-05-12T23:51:28.413Z,10.20
2023-05-12T23:53:55.002Z,10.20
2023-05-12T23:56:22.333Z,10.10
2023-05-12T23:58:49.149Z,10.20
